Battle Ground, Indiana
Current Conditions -  °F | °C
As of 10:54 PM on Sunday 21 Dec 2014 (Local Time) from KLAF Reporting Station
Haze Haze  
Wind Chill: 22°   Ceiling: Unl
Heat Index: 28°   Visibility: 6mi
Dew Point: 25°   Wind: 6mph
Humidity: 88%   Direction: 100°E
Pressure: 30.08"   Gusts: NA
Location:  40.51°N, 86.84°W
Report Text: KLAF 220354Z AUTO 10005KT 6SM BR CLR M02/M04 A3008 RMK AO2 SLP192 T10221039 TSNO
Loading
Personal Weather Stations






























Interactive Weather Map New forecast layout! Learn more

10-Day Weather Forecast

Advertisements
Track Severe Weather on mobile